createdAt,value
2022-08-16T00:01:16.244Z,26.15
2022-08-16T00:03:45.348Z,26.14
2022-08-16T00:06:15.554Z,26.12
2022-08-16T00:08:45.697Z,26.11
2022-08-16T00:11:15.783Z,26.13
2022-08-16T00:13:53.786Z,26.11
2022-08-16T00:17:06.373Z,25.72
2022-08-16T00:19:13.644Z,26.08
2022-08-16T00:21:41.961Z,26.03
2022-08-16T00:24:11.539Z,26.06
2022-08-16T00:26:44.504Z,26.05
2022-08-16T00:29:13.358Z,25.81
2022-08-16T00:31:58.673Z,25.76
2022-08-16T00:34:41.867Z,26.02
2022-08-16T00:37:17.393Z,26.00
2022-08-16T00:39:47.125Z,26.01
2022-08-16T00:42:30.459Z,26.00
2022-08-16T00:45:06.514Z,25.99
2022-08-16T00:47:36.878Z,25.99
2022-08-16T00:50:11.462Z,25.98
2022-08-16T00:52:50.407Z,25.96
2022-08-16T00:55:20.155Z,25.87
2022-08-16T00:57:58.613Z,25.94
2022-08-16T01:00:28.798Z,25.91
2022-08-16T01:02:57.520Z,25.94
2022-08-16T01:05:27.320Z,25.90
2022-08-16T01:07:55.245Z,25.92
2022-08-16T01:10:31.912Z,25.92
2022-08-16T01:13:01.620Z,25.91
2022-08-16T01:15:32.263Z,25.91
2022-08-16T01:18:00.220Z,25.90
2022-08-16T01:20:30.490Z,25.34
2022-08-16T01:23:01.256Z,25.78
2022-08-16T01:25:34.161Z,25.68
2022-08-16T01:28:03.294Z,25.88
2022-08-16T01:30:34.217Z,25.41
2022-08-16T01:33:15.033Z,25.87
2022-08-16T01:35:46.651Z,25.24
2022-08-16T01:38:21.415Z,25.83
2022-08-16T01:40:55.727Z,25.82
2022-08-16T01:43:23.698Z,25.80
2022-08-16T01:45:57.850Z,25.79
2022-08-16T01:48:28.191Z,25.58
2022-08-16T01:51:08.832Z,25.48
2022-08-16T01:53:40.675Z,25.63
2022-08-16T01:56:22.077Z,25.82
2022-08-16T01:58:51.543Z,25.77
2022-08-16T02:01:19.316Z,25.76
2022-08-16T02:03:50.336Z,25.75
2022-08-16T02:06:33.920Z,25.76
2022-08-16T02:09:05.257Z,25.75
2022-08-16T02:11:47.781Z,25.71
2022-08-16T02:14:21.450Z,25.73
2022-08-16T02:16:49.473Z,25.73
2022-08-16T02:19:18.487Z,25.71
2022-08-16T02:22:07.631Z,25.72
2022-08-16T02:24:40.933Z,25.70
2022-08-16T02:27:11.631Z,25.70
2022-08-16T02:29:41.337Z,25.69
2022-08-16T02:32:50.536Z,25.65
2022-08-16T02:34:57.741Z,25.66
2022-08-16T02:37:52.089Z,25.65
2022-08-16T02:40:16.411Z,25.66
2022-08-16T02:42:45.666Z,25.65
2022-08-16T02:45:18.176Z,25.65
2022-08-16T02:48:00.107Z,25.65
2022-08-16T02:50:54.983Z,25.65
2022-08-16T02:53:18.281Z,25.64
2022-08-16T02:55:51.478Z,25.11
2022-08-16T02:58:24.764Z,25.63
2022-08-16T03:00:53.275Z,25.61
2022-08-16T03:03:24.932Z,25.59
2022-08-16T03:05:53.181Z,25.20
2022-08-16T03:08:49.796Z,25.23
2022-08-16T03:11:16.805Z,25.58
2022-08-16T03:13:47.730Z,25.55
2022-08-16T03:16:38.182Z,25.54
2022-08-16T03:19:06.787Z,25.52
2022-08-16T03:21:37.800Z,25.45
2022-08-16T03:24:28.875Z,25.52
2022-08-16T03:26:57.993Z,25.51
2022-08-16T03:29:30.332Z,25.53
2022-08-16T03:31:59.053Z,25.48
2022-08-16T03:34:27.421Z,25.47
2022-08-16T03:36:55.418Z,25.48
2022-08-16T03:39:23.265Z,25.48
2022-08-16T03:41:51.579Z,25.03
2022-08-16T03:44:44.404Z,25.44
2022-08-16T03:47:18.600Z,25.46
2022-08-16T03:49:51.796Z,25.42
2022-08-16T03:52:20.294Z,25.43
2022-08-16T03:54:57.670Z,25.42
2022-08-16T03:57:31.748Z,25.37
2022-08-16T04:00:35.371Z,24.89
2022-08-16T04:03:02.730Z,25.40
2022-08-16T04:05:33.185Z,25.39
2022-08-16T04:08:02.218Z,25.40
2022-08-16T04:10:49.970Z,25.38
2022-08-16T04:13:20.425Z,25.38
2022-08-16T04:16:08.842Z,25.38
2022-08-16T04:18:38.782Z,25.26
2022-08-16T04:21:06.727Z,25.32
2022-08-16T04:23:34.453Z,25.31
2022-08-16T04:26:04.781Z,25.31
2022-08-16T04:28:55.893Z,25.33
2022-08-16T04:31:21.544Z,25.32
2022-08-16T04:33:50.581Z,25.26
2022-08-16T04:36:19.958Z,25.29
2022-08-16T04:38:49.954Z,24.92
2022-08-16T04:41:17.989Z,25.30
2022-08-16T04:43:45.815Z,24.86
2022-08-16T04:47:00.063Z,25.29
2022-08-16T04:49:08.049Z,25.29
2022-08-16T04:51:36.284Z,25.26
2022-08-16T04:54:04.114Z,24.76
2022-08-16T04:56:31.839Z,25.25
2022-08-16T04:58:59.575Z,25.24
2022-08-16T05:01:57.927Z,25.24
2022-08-16T05:04:19.689Z,25.22
2022-08-16T05:06:47.743Z,25.24
2022-08-16T05:09:16.233Z,25.16
2022-08-16T05:11:44.241Z,25.24
2022-08-16T05:14:11.977Z,25.26
2022-08-16T05:16:48.129Z,25.26
2022-08-16T05:19:21.328Z,25.26
2022-08-16T05:21:49.049Z,25.26
2022-08-16T05:24:22.171Z,25.26
2022-08-16T05:26:52.616Z,25.29
2022-08-16T05:29:20.494Z,25.29
2022-08-16T05:31:53.364Z,25.33
2022-08-16T05:34:22.723Z,25.33
2022-08-16T05:36:51.231Z,25.33
2022-08-16T05:39:20.514Z,25.38
2022-08-16T05:41:51.583Z,25.18
2022-08-16T05:44:23.122Z,25.16
2022-08-16T05:46:53.478Z,25.07
2022-08-16T05:49:23.743Z,25.04
2022-08-16T05:51:51.455Z,24.94
2022-08-16T05:54:25.234Z,24.56
2022-08-16T05:56:53.676Z,24.60
2022-08-16T05:59:21.976Z,24.61
2022-08-16T06:01:51.921Z,24.69
2022-08-16T06:04:36.588Z,24.69
2022-08-16T06:07:09.113Z,24.61
2022-08-16T06:09:52.586Z,24.64
2022-08-16T06:12:26.860Z,24.67
2022-08-16T06:14:58.968Z,24.63
2022-08-16T06:17:41.808Z,24.59
2022-08-16T06:20:14.637Z,23.92
2022-08-16T06:22:47.646Z,24.62
2022-08-16T06:25:35.959Z,24.68
2022-08-16T06:28:08.885Z,24.14
2022-08-16T06:30:44.153Z,24.72
2022-08-16T06:33:22.104Z,24.71
2022-08-16T06:35:51.001Z,24.74
2022-08-16T06:38:34.060Z,24.63
2022-08-16T06:41:04.054Z,24.28
2022-08-16T06:43:32.003Z,24.81
2022-08-16T06:46:00.069Z,24.88
2022-08-16T06:48:32.456Z,24.98
2022-08-16T06:51:01.226Z,25.08
2022-08-16T06:53:35.584Z,25.21
2022-08-16T06:56:06.014Z,25.30
2022-08-16T06:58:41.523Z,25.44
2022-08-16T07:01:10.016Z,25.47
2022-08-16T07:03:54.902Z,25.23
2022-08-16T07:06:26.450Z,25.63
2022-08-16T07:08:56.122Z,25.71
2022-08-16T07:11:47.447Z,25.79
2022-08-16T07:14:25.117Z,25.83
2022-08-16T07:16:55.832Z,25.90
2022-08-16T07:20:03.990Z,25.62
2022-08-16T07:22:37.771Z,26.00
2022-08-16T07:25:03.096Z,26.02
2022-08-16T07:27:33.621Z,25.91
2022-08-16T07:30:01.676Z,25.83
2022-08-16T07:32:31.514Z,25.83
2022-08-16T07:34:59.287Z,25.80
2022-08-16T07:37:26.983Z,25.86
2022-08-16T07:39:55.010Z,25.98
2022-08-16T07:42:28.669Z,25.95
2022-08-16T07:45:02.711Z,26.03
2022-08-16T07:47:31.347Z,26.06
2022-08-16T07:49:59.786Z,26.17
2022-08-16T07:52:29.829Z,26.27
2022-08-16T07:54:57.919Z,26.32
2022-08-16T07:57:27.031Z,26.37
2022-08-16T07:59:57.391Z,26.41
2022-08-16T08:02:27.451Z,26.40
2022-08-16T08:04:55.737Z,26.43
2022-08-16T08:07:28.078Z,26.25
2022-08-16T08:09:56.132Z,26.46
2022-08-16T08:12:31.598Z,26.54
2022-08-16T08:15:05.924Z,26.14
2022-08-16T08:17:42.023Z,26.58
2022-08-16T08:20:12.913Z,26.36
2022-08-16T08:22:48.836Z,26.64
2022-08-16T08:25:18.338Z,26.63
2022-08-16T08:27:46.936Z,26.74
2022-08-16T08:30:49.643Z,26.75
2022-08-16T08:33:04.298Z,26.70
2022-08-16T08:35:33.399Z,26.77
2022-08-16T08:38:01.335Z,26.75
2022-08-16T08:40:30.093Z,26.45
2022-08-16T08:43:00.473Z,26.29
2022-08-16T08:45:46.556Z,26.53
2022-08-16T08:48:34.597Z,26.33
2022-08-16T08:51:03.870Z,26.56
2022-08-16T08:53:32.697Z,26.61
2022-08-16T08:56:01.582Z,26.37
2022-08-16T08:58:55.003Z,26.20
2022-08-16T09:01:31.716Z,26.25
2022-08-16T09:04:05.065Z,26.16
2022-08-16T09:06:33.020Z,26.49
2022-08-16T09:09:01.002Z,26.66
2022-08-16T09:11:40.668Z,26.72
2022-08-16T09:14:09.315Z,26.84
2022-08-16T09:17:01.314Z,26.90
2022-08-16T09:19:34.067Z,26.80
2022-08-16T09:22:02.296Z,26.94
2022-08-16T09:24:52.088Z,26.97
2022-08-16T09:27:18.096Z,26.99
2022-08-16T09:29:46.793Z,26.98
2022-08-16T09:32:30.760Z,26.99
2022-08-16T09:34:59.030Z,27.10
2022-08-16T09:37:29.153Z,26.93
2022-08-16T09:39:59.674Z,26.78
2022-08-16T09:42:28.386Z,26.76
2022-08-16T09:45:10.831Z,26.69
2022-08-16T09:47:56.328Z,26.52
2022-08-16T09:50:33.169Z,26.60
2022-08-16T09:53:07.721Z,26.37
2022-08-16T09:55:44.475Z,26.52
2022-08-16T09:58:41.851Z,26.53
2022-08-16T10:01:01.012Z,26.61
2022-08-16T10:03:30.511Z,26.73
2022-08-16T10:05:58.508Z,26.49
2022-08-16T10:08:27.542Z,26.89
2022-08-16T10:11:13.369Z,26.81
2022-08-16T10:13:43.820Z,26.55
2022-08-16T10:19:00.962Z,26.94
2022-08-16T10:21:32.313Z,26.96
2022-08-16T10:24:00.133Z,26.99
2022-08-16T10:27:19.945Z,27.04
2022-08-16T10:29:20.018Z,27.03
2022-08-16T10:31:53.181Z,26.65
2022-08-16T10:34:30.999Z,27.13
2022-08-16T10:37:00.522Z,27.17
2022-08-16T10:39:32.923Z,27.19
2022-08-16T10:42:08.980Z,27.21
2022-08-16T10:44:36.694Z,27.23
2022-08-16T10:47:04.600Z,27.25
2022-08-16T10:49:34.437Z,27.26
2022-08-16T10:52:18.850Z,27.29
2022-08-16T10:57:35.090Z,27.29
2022-08-16T11:00:05.149Z,27.31
2022-08-16T11:02:59.018Z,27.31
2022-08-16T11:05:22.929Z,27.33
2022-08-16T11:07:53.415Z,27.05
2022-08-16T11:19:04.646Z,27.39
2022-08-16T11:21:37.502Z,27.40
2022-08-16T11:24:41.596Z,27.17
2022-08-16T11:27:22.973Z,27.41
2022-08-16T11:29:52.947Z,27.42
2022-08-16T11:32:22.650Z,27.44
2022-08-16T11:35:10.217Z,27.42
2022-08-16T11:40:32.724Z,27.31
2022-08-16T11:43:01.329Z,27.43
2022-08-16T11:45:30.223Z,27.42
2022-08-16T11:48:01.792Z,27.40
2022-08-16T11:50:33.276Z,27.39
2022-08-16T11:53:03.688Z,27.40
2022-08-16T11:55:31.905Z,27.38
2022-08-16T12:00:42.638Z,27.52
2022-08-16T12:03:11.770Z,27.46
2022-08-16T12:05:40.450Z,27.45
2022-08-16T12:08:09.919Z,27.45
2022-08-16T12:10:40.937Z,27.46
2022-08-16T12:13:11.733Z,27.13
2022-08-16T12:15:40.890Z,27.24
2022-08-16T12:18:08.974Z,27.31
2022-08-16T12:20:38.549Z,27.51
2022-08-16T12:23:07.745Z,27.52
2022-08-16T12:25:35.864Z,27.53
2022-08-16T12:28:05.604Z,27.54
2022-08-16T12:30:38.444Z,27.56
2022-08-16T12:33:09.346Z,27.56
2022-08-16T12:35:37.947Z,27.59
2022-08-16T12:38:37.879Z,27.59
2022-08-16T12:40:56.977Z,27.59
2022-08-16T12:43:25.398Z,27.60
2022-08-16T12:45:54.265Z,27.59
2022-08-16T12:48:43.560Z,27.58
2022-08-16T12:51:23.964Z,27.57
2022-08-16T12:53:52.666Z,27.56
2022-08-16T12:56:20.776Z,27.55
2022-08-16T12:58:51.904Z,27.57
2022-08-16T13:01:22.785Z,27.58
2022-08-16T13:04:11.548Z,27.56
2022-08-16T13:06:43.294Z,27.55
2022-08-16T13:09:23.397Z,27.59
2022-08-16T13:12:00.046Z,27.32
2022-08-16T13:14:32.104Z,27.59
2022-08-16T13:17:01.517Z,27.99
2022-08-16T13:20:03.462Z,28.14
2022-08-16T13:22:20.159Z,28.18
2022-08-16T13:24:47.886Z,28.24
2022-08-16T13:27:15.736Z,28.34
2022-08-16T13:29:45.146Z,28.39
2022-08-16T13:32:40.226Z,27.99
2022-08-16T13:35:07.609Z,28.46
2022-08-16T13:37:39.778Z,28.45
2022-08-16T13:40:19.764Z,28.48
2022-08-16T13:42:48.010Z,28.47
2022-08-16T13:45:15.984Z,28.50
2022-08-16T13:47:43.863Z,28.50
2022-08-16T13:50:13.217Z,28.57
2022-08-16T13:52:41.282Z,28.61
2022-08-16T13:55:17.678Z,28.25
2022-08-16T13:58:35.087Z,28.63
2022-08-16T14:00:34.266Z,28.65
2022-08-16T14:03:02.764Z,28.64
2022-08-16T14:05:31.852Z,28.66
2022-08-16T14:08:00.905Z,28.68
2022-08-16T14:10:31.066Z,28.70
2022-08-16T14:13:01.237Z,28.73
2022-08-16T14:15:29.597Z,28.53
2022-08-16T14:18:17.018Z,28.76
2022-08-16T14:20:51.140Z,28.78
2022-08-16T14:23:23.688Z,28.56
2022-08-16T14:25:53.965Z,28.84
2022-08-16T14:28:23.751Z,28.90
2022-08-16T14:30:54.035Z,28.93
2022-08-16T14:33:21.754Z,28.96
2022-08-16T14:35:51.026Z,29.02
2022-08-16T14:38:23.535Z,29.00
2022-08-16T14:40:55.538Z,29.02
2022-08-16T14:43:23.886Z,29.02
2022-08-16T14:45:54.664Z,29.08
2022-08-16T14:48:25.940Z,28.74
2022-08-16T14:50:55.756Z,29.18
2022-08-16T14:53:23.955Z,29.21
2022-08-16T14:55:51.798Z,29.24
2022-08-16T14:58:20.223Z,29.24
2022-08-16T15:01:03.039Z,29.24
2022-08-16T15:03:33.002Z,29.26
2022-08-16T15:06:02.479Z,29.25
2022-08-16T15:08:36.713Z,29.26
2022-08-16T15:11:05.509Z,29.28
2022-08-16T15:13:33.309Z,29.17
2022-08-16T15:16:02.983Z,29.40
2022-08-16T15:18:32.316Z,29.46
2022-08-16T15:21:00.370Z,29.49
2022-08-16T15:23:31.606Z,29.55
2022-08-16T15:26:03.832Z,29.55
2022-08-16T15:28:32.453Z,29.57
2022-08-16T15:31:04.001Z,29.61
2022-08-16T15:33:32.642Z,29.65
2022-08-16T15:36:00.669Z,29.69
2022-08-16T15:38:54.935Z,29.73
2022-08-16T15:41:32.537Z,29.52
2022-08-16T15:44:05.558Z,29.79
2022-08-16T15:46:55.523Z,29.84
2022-08-16T15:49:36.969Z,29.59
2022-08-16T15:52:10.519Z,29.89
2022-08-16T15:54:52.674Z,29.89
2022-08-16T15:57:21.712Z,29.65
2022-08-16T15:59:52.865Z,29.97
2022-08-16T16:02:29.252Z,29.82
2022-08-16T16:05:02.517Z,30.02
2022-08-16T16:07:33.719Z,30.04
2022-08-16T16:10:13.530Z,30.07
2022-08-16T16:12:51.630Z,30.11
2022-08-16T16:15:29.281Z,30.13
2022-08-16T16:17:57.342Z,30.12
2022-08-16T16:20:27.055Z,30.10
2022-08-16T16:22:56.770Z,30.07
2022-08-16T16:25:28.276Z,30.08
2022-08-16T16:27:59.623Z,30.09
2022-08-16T16:30:38.222Z,30.09
2022-08-16T16:33:15.846Z,29.83
2022-08-16T16:35:56.597Z,30.12
2022-08-16T16:38:26.409Z,29.87
2022-08-16T16:40:55.762Z,30.16
2022-08-16T16:43:26.091Z,30.16
2022-08-16T16:45:59.545Z,30.17
2022-08-16T16:48:29.497Z,30.19
2022-08-16T16:51:05.006Z,30.21
2022-08-16T16:53:37.820Z,30.20
2022-08-16T16:56:10.517Z,30.19
2022-08-16T16:58:57.940Z,30.20
2022-08-16T17:01:41.501Z,30.09
2022-08-16T17:04:22.253Z,30.13
2022-08-16T17:06:53.453Z,29.87
2022-08-16T17:09:24.994Z,30.10
2022-08-16T17:11:55.104Z,30.06
2022-08-16T17:14:33.613Z,30.04
2022-08-16T17:17:06.168Z,30.03
2022-08-16T17:19:33.970Z,29.97
2022-08-16T17:22:14.895Z,29.84
2022-08-16T17:24:45.080Z,29.99
2022-08-16T17:27:17.701Z,29.75
2022-08-16T17:29:46.964Z,29.99
2022-08-16T17:32:33.914Z,29.95
2022-08-16T17:35:11.634Z,29.74
2022-08-16T17:37:51.703Z,29.90
2022-08-16T17:40:40.734Z,29.49
2022-08-16T17:43:10.582Z,29.79
2022-08-16T17:45:38.310Z,29.78
2022-08-16T17:48:06.471Z,29.74
2022-08-16T17:50:34.167Z,29.72
2022-08-16T17:53:03.664Z,29.67
2022-08-16T17:55:32.245Z,29.40
2022-08-16T17:57:59.948Z,29.58
2022-08-16T18:00:29.524Z,29.27
2022-08-16T18:02:58.598Z,29.50
2022-08-16T18:05:27.192Z,29.47
2022-08-16T18:07:55.101Z,29.42
2022-08-16T18:10:33.413Z,29.14
2022-08-16T18:13:04.535Z,29.03
2022-08-16T18:15:36.956Z,29.32
2022-08-16T18:18:04.979Z,29.27
2022-08-16T18:20:50.154Z,29.26
2022-08-16T18:23:19.207Z,29.23
2022-08-16T18:25:50.318Z,29.20
2022-08-16T18:28:18.151Z,29.17
2022-08-16T18:30:51.512Z,29.14
2022-08-16T18:33:20.320Z,29.12
2022-08-16T18:35:48.099Z,29.10
2022-08-16T18:38:15.838Z,28.74
2022-08-16T18:40:43.543Z,29.05
2022-08-16T18:43:12.234Z,28.91
2022-08-16T18:45:41.688Z,28.99
2022-08-16T18:48:10.861Z,28.96
2022-08-16T18:51:04.547Z,28.94
2022-08-16T18:53:27.928Z,28.90
2022-08-16T18:55:57.240Z,28.71
2022-08-16T18:58:25.050Z,28.87
2022-08-16T19:00:56.446Z,28.84
2022-08-16T19:03:27.462Z,28.82
2022-08-16T19:05:57.079Z,28.58
2022-08-16T19:08:24.899Z,28.79
2022-08-16T19:10:52.715Z,28.57
2022-08-16T19:13:21.885Z,28.75
2022-08-16T19:15:50.817Z,28.72
2022-08-16T19:18:18.553Z,28.69
2022-08-16T19:20:47.824Z,28.67
2022-08-16T19:23:17.315Z,28.65
2022-08-16T19:25:49.624Z,28.63
2022-08-16T19:28:48.931Z,28.63
2022-08-16T19:31:12.279Z,28.59
2022-08-16T19:33:40.555Z,28.58
2022-08-16T19:36:11.755Z,28.54
2022-08-16T19:38:58.908Z,28.53
2022-08-16T19:41:32.765Z,28.51
2022-08-16T19:44:00.456Z,28.50
2022-08-16T19:46:28.177Z,28.49
2022-08-16T19:48:55.876Z,28.49
2022-08-16T19:51:24.922Z,28.46
2022-08-16T19:53:52.670Z,28.45
2022-08-16T19:56:23.139Z,28.44
2022-08-16T19:59:17.386Z,28.42
2022-08-16T20:01:42.325Z,28.42
2022-08-16T20:04:12.048Z,28.41
2022-08-16T20:06:41.494Z,28.37
2022-08-16T20:09:10.360Z,28.34
2022-08-16T20:11:42.323Z,28.34
2022-08-16T20:14:10.037Z,28.35
2022-08-16T20:16:37.753Z,28.34
2022-08-16T20:19:05.651Z,28.32
2022-08-16T20:21:33.376Z,28.31
2022-08-16T20:24:32.022Z,28.29
2022-08-16T20:26:50.109Z,28.27
2022-08-16T20:29:17.826Z,28.26
2022-08-16T20:31:45.608Z,28.26
2022-08-16T20:34:15.608Z,28.25
2022-08-16T20:36:43.349Z,28.23
2022-08-16T20:39:13.458Z,28.21
2022-08-16T20:41:41.472Z,28.22
2022-08-16T20:44:10.293Z,28.20
2022-08-16T20:46:39.007Z,28.19
2022-08-16T20:49:09.128Z,27.83
2022-08-16T20:51:46.754Z,27.99
2022-08-16T20:54:18.832Z,28.13
2022-08-16T20:56:46.555Z,28.12
2022-08-16T20:59:14.263Z,28.11
2022-08-16T21:01:46.773Z,28.10
2022-08-16T21:04:18.810Z,28.09
2022-08-16T21:06:54.266Z,28.08
2022-08-16T21:09:24.899Z,27.74
2022-08-16T21:11:52.886Z,28.02
2022-08-16T21:14:20.581Z,28.00
2022-08-16T21:16:48.307Z,27.98
2022-08-16T21:19:15.998Z,28.00
2022-08-16T21:21:43.712Z,27.98
2022-08-16T21:24:11.531Z,27.98
2022-08-16T21:26:40.645Z,27.97
2022-08-16T21:29:17.831Z,27.95
2022-08-16T21:31:45.536Z,27.94
2022-08-16T21:34:13.219Z,27.93
2022-08-16T21:36:40.955Z,27.93
2022-08-16T21:39:08.646Z,27.91
2022-08-16T21:41:38.371Z,27.86
2022-08-16T21:44:07.870Z,27.88
2022-08-16T21:46:35.676Z,27.88
2022-08-16T21:49:04.660Z,27.85
2022-08-16T21:51:32.398Z,27.84
2022-08-16T21:54:00.129Z,27.83
2022-08-16T21:56:28.785Z,27.81
2022-08-16T21:58:56.492Z,27.81
2022-08-16T22:01:26.436Z,27.80
2022-08-16T22:04:36.204Z,27.47
2022-08-16T22:06:42.439Z,27.78
2022-08-16T22:09:10.661Z,27.76
2022-08-16T22:11:38.563Z,27.72
2022-08-16T22:14:06.287Z,27.73
2022-08-16T22:16:36.324Z,27.27
2022-08-16T22:19:05.172Z,27.72
2022-08-16T22:21:33.141Z,27.36
2022-08-16T22:24:00.874Z,27.70
2022-08-16T22:26:30.448Z,27.70
2022-08-16T22:28:59.916Z,27.67
2022-08-16T22:31:27.650Z,27.67
2022-08-16T22:33:57.291Z,27.66
2022-08-16T22:36:28.425Z,27.64
2022-08-16T22:38:58.004Z,27.65
2022-08-16T22:41:26.389Z,27.64
2022-08-16T22:43:54.172Z,27.59
2022-08-16T22:46:21.924Z,27.61
2022-08-16T22:48:50.768Z,27.24
2022-08-16T22:51:20.397Z,27.59
2022-08-16T22:53:48.126Z,27.57
2022-08-16T22:56:15.992Z,27.57
2022-08-16T22:58:43.764Z,27.52
2022-08-16T23:01:13.205Z,27.56
2022-08-16T23:03:41.281Z,27.53
2022-08-16T23:06:09.103Z,27.52
2022-08-16T23:08:40.973Z,27.52
2022-08-16T23:11:09.257Z,27.52
2022-08-16T23:13:36.994Z,27.50
2022-08-16T23:16:11.199Z,27.47
2022-08-16T23:18:40.384Z,27.16
2022-08-16T23:21:09.000Z,27.46
2022-08-16T23:23:38.554Z,27.10
2022-08-16T23:26:44.501Z,27.47
2022-08-16T23:28:54.057Z,27.44
2022-08-16T23:31:21.771Z,27.42
2022-08-16T23:33:49.474Z,27.42
2022-08-16T23:36:17.183Z,27.42
2022-08-16T23:38:46.210Z,27.39
2022-08-16T23:41:13.924Z,27.39
2022-08-16T23:43:43.257Z,27.39
2022-08-16T23:46:13.537Z,27.08
2022-08-16T23:49:57.514Z,27.35
2022-08-16T23:51:29.039Z,27.34
2022-08-16T23:53:58.151Z,27.33
2022-08-16T23:56:25.929Z,27.34
2022-08-16T23:58:58.289Z,26.98
